NCAR-RAP Real-Time Weather Data

Output produced by METARs form (20 February 2019  18:30 UTC)
found at http://weather.rap.ucar.edu/surface/
 
RJFG 200900Z 30020KT 9999 FEW015 SCT100 BKN180 11/07 Q1020
RJFG 200800Z 30024KT 9999 FEW015 SCT020 12/08 Q1020
RJFG 200700Z 30023KT 9999 FEW015 BKN020 12/09 Q1019
RJFG 200600Z 30025KT 9999 FEW015 BKN020 13/09 Q1019
RJFG 200500Z 29023KT 9999 FEW015 BKN020 13/09 Q1019
RJFG 200400Z 30025KT 9999 FEW015 BKN020 13/09 Q1020
RJFG 200300Z 29023KT 9999 FEW010 SCT015 14/10 Q1021
RJFG 200200Z 29023KT 9999 FEW013 BKN020 14/11 Q1021
RJFG 200100Z 29021KT 9999 FEW013 BKN025 14/11 Q1021
RJFG 200000Z 29021KT 9999 FEW010 SCT025 14/11 Q1021
RJFG 192330Z 30020KT 9999 FEW010 SCT015 BKN020 14/11 Q1020
RJFG 192310Z 30019KT 9999 FEW010 SCT015 14/11 Q1020 RMK 1CU010 4CU015 A3013
RJFG 190919Z 29016KT 8000 FEW003 SCT005 BKN012 16/15 Q1017 RMK 1ST003 3ST005 5CU012 A3003
RJFG 190900Z 29018KT 6000 FEW002 SCT004 BKN006 16/15 Q1016
RJFG 190838Z 29017KT 5000 BR FEW002 SCT005 BKN008 16/16 Q1016 RMK 1ST002 3ST005 5CU008 A3001
RJFG 190821Z 29017KT 8000 FEW002 SCT030 BKN170 16/16 Q1016 RMK 1ST002 3SC030 5AC170 A3000
RJFG 190800Z 28017KT 6000 FEW002 SCT003 BKN005 17/16 Q1016
RJFG 190742Z 29018KT 5000 R31/P1800N PRFG BR FEW001 SCT003 BKN005 17/16 Q1015 RMK 1ST001 3ST003 5ST005 A3000 1500NW FG NW
RJFG 190700Z 29017KT 0200 R31/0500V0900U FG FEW000 SCT001 BKN002 18/17 Q1015
RJFG 190640Z 28014KT 0500 R31/0700V1700U FG FEW001 SCT002 BKN003 18/17 Q1015 RMK 1ST001 3ST002 5ST003 A2998
RJFG 190618Z 28015KT 0100 R31/0250V0750D -SHRA FG VV001 18/17 Q1015 RMK A2997
RJFG 190607Z 29016KT 0200 R31/0300VP1800D -SHRA FG FEW000 SCT001 BKN002 18/17 Q1014 RMK 1ST000 3ST001 5ST002 A2996 P/RR
RJFG 190604Z 29015KT 0200 R31/0450VP1800D -SHRA FG FEW000 SCT001 BKN002 18/17 Q1014 RMK 1ST000 3ST001 5ST002 A2996 P/RR
RJFG 190600Z 29016KT 0600 R31/P1800N -SHRA FG FEW001 SCT005 BKN010 18/17 Q1014
RJFG 190541Z 31017G27KT 4000 R31/1300VP1800U SHRA BR FEW001 SCT005 BKN008 19/18 Q1014 RMK 1ST001 3ST005 5CU008 A2995
RJFG 190509Z VRB06G16KT 1000 R31/1300VP1800U +SHRA BR FEW002 SCT005 BKN008 19/18 Q1013 RMK 1ST002 3ST005 5CU008 A2994 RI++
RJFG 190507Z 20007KT 140V250 2000 R31/1200VP1800U SHRA BR FEW002 SCT005 BKN008 19/18 Q1014 RMK 1ST002 3ST005 5CU008 A2994
RJFG 190500Z 19009KT 140V250 1500 R31/1100VP1800D +SHRA BR FEW002 SCT005 BKN008 19/18 Q1014
RJFG 190443Z 20009G20KT 160V240 2000 R31/1700D +SHRA BR FEW001 SCT004 BKN006 19/18 Q1014 RMK 1ST001 3ST004 5ST006 A2997
RJFG 190426Z 20012KT 150V240 3000 R31/0900VP1800U SHRA BR FEW001 SCT004 BKN006 19/18 Q1015 RMK 1ST001 3ST004 5ST006 A2998
RJFG 190420Z 19011KT 160V240 1500 R31/1000VP1800D +SHRA BR FEW002 SCT004 BKN006 20/19 Q1015 RMK 1ST002 3ST004 5ST006 A2998 RI++
RJFG 190414Z 19011KT 150V220 3000 R31/1400VP1800D SHRA BR FEW002 SCT004 BKN006 20/19 Q1015 RMK 1ST002 3ST004 5ST006 A2998
RJFG 190400Z 18012G24KT 150V220 4000 -SHRA BR FEW002 SCT004 BKN006 20/19 Q1015
RJFG 190325Z 19013G23KT 140V230 4000 -SHRA BR FEW002 SCT004 BKN006 20/19 Q1016 RMK 1ST002 3ST004 5ST006 A3001
RJFG 190300Z 19012G22KT 150V220 5000 -SHRA BR FEW003 SCT008 BKN012 19/18 Q1016
RJFG 190217Z 19011KT 150V230 6000 -SHRA FEW004 SCT010 BKN012 19/18 Q1017 RMK 1ST004 3CU010 5CU012 A3005
RJFG 190200Z 19012G22KT 160V220 5000 -SHRA BR FEW004 SCT006 BKN008 19/18 Q1017
RJFG 190115Z 18014G27KT 140V210 4000 -SHRA BR FEW003 SCT006 BKN010 19/18 Q1017 RMK 1ST003 3ST006 5CU010 A3003
RJFG 190100Z 18015KT 130V210 1500 R31/P1800N SHRA BR FEW002 SCT005 BKN008 19/18 Q1017
RJFG 190033Z 18012G22KT 150V210 2000 R31/1300VP1800D SHRA BR FEW002 SCT005 BKN008 19/18 Q1017 RMK 1ST002 3ST005 5CU008 A3005
RJFG 190028Z 19014KT 150V210 1500 R31/1300VP1800D +SHRA BR FEW002 SCT004 BKN008 19/18 Q1017 RMK 1ST002 3ST004 5CU008 A3006
RJFG 190018Z 18011KT 150V230 1500 R31/P1800N -SHRA BR FEW002 SCT003 BKN005 19/18 Q1017 RMK 1ST002 3ST003 5ST005 A3006
RJFG 190007Z 18014KT 2000 SHRA BR FEW001 SCT003 BKN004 19/18 Q1017 RMK 1ST001 3ST003 5ST004 A3006
RJFG 190000Z 18014G24KT 150V220 1500 R31/P1800N -SHRA BR FEW001 SCT003 BKN004 19/18 Q1017
RJFG 182339Z 18012KT 120V220 2500 -SHRA BR FEW001 SCT002 BKN003 18/18 Q1017 RMK 1ST001 3ST002 5ST003 A3005
RJFG 182330Z 18012KT 120V210 2000 R31/0800VP1800U -SHRA BR FEW001 SCT002 BKN003 18/18 Q1017
RJFG 182310Z 17012G24KT 150V210 0300 R31/0300V0750U -SHRA FG FEW000 SCT001 BKN002 18/17 Q1017 RMK 1ST000 3ST001 5ST002 A3006
RJFG 182303Z 18013KT 140V210 0400 R31/0300V0600D SHRA FG FEW000 SCT001 BKN002 18/17 Q1017 RMK 1ST000 3ST001 5ST002 A3006
RJFG 180900Z VRB01KT 9999 FEW030 BKN/// 12/08 Q1023
RJFG 180800Z 11006KT 9999 FEW030 SCT/// 13/07 Q1022
RJFG 180700Z 12006KT 9999 FEW030 BKN/// 14/06 Q1023